sensor_id;sensor_type;location;lat;lon;timestamp;pressure;altitude;pressure_sealevel;temperature;humidity
11049;BME280;5577;42.706;23.160;2023-03-21T00:01:51;93991.78;;;10.24;100.00
11049;BME280;5577;42.706;23.160;2023-03-21T00:04:35;93989.63;;;10.10;100.00
11049;BME280;5577;42.706;23.160;2023-03-21T00:07:19;93986.88;;;10.07;100.00
11049;BME280;5577;42.706;23.160;2023-03-21T00:10:03;93983.28;;;9.99;100.00
11049;BME280;5577;42.706;23.160;2023-03-21T00:12:47;93974.84;;;9.94;100.00
11049;BME280;5577;42.706;23.160;2023-03-21T00:15:38;93971.56;;;9.81;100.00
11049;BME280;5577;42.706;23.160;2023-03-21T00:18:33;93970.72;;;9.77;100.00
11049;BME280;5577;42.706;23.160;2023-03-21T00:21:20;93900.66;;;9.18;100.00
11049;BME280;5577;42.706;23.160;2023-03-21T00:24:05;93973.66;;;9.57;100.00
11049;BME280;5577;42.706;23.160;2023-03-21T00:26:50;93981.81;;;9.52;100.00
11049;BME280;5577;42.706;23.160;2023-03-21T00:29:34;93977.59;;;9.47;100.00
11049;BME280;5577;42.706;23.160;2023-03-21T00:32:20;93963.78;;;9.38;100.00
11049;BME280;5577;42.706;23.160;2023-03-21T00:35:04;93884.28;;;8.81;100.00
11049;BME280;5577;42.706;23.160;2023-03-21T00:37:49;93971.09;;;9.29;100.00
11049;BME280;5577;42.706;23.160;2023-03-21T00:40:32;93976.28;;;9.26;100.00
11049;BME280;5577;42.706;23.160;2023-03-21T00:43:17;93969.16;;;9.26;100.00
11049;BME280;5577;42.706;23.160;2023-03-21T00:46:02;93967.19;;;9.23;100.00
11049;BME280;5577;42.706;23.160;2023-03-21T00:48:47;93971.09;;;9.14;100.00
11049;BME280;5577;42.706;23.160;2023-03-21T00:51:31;93968.81;;;9.12;100.00
11049;BME280;5577;42.706;23.160;2023-03-21T00:54:16;93958.31;;;9.00;100.00
11049;BME280;5577;42.706;23.160;2023-03-21T00:57:01;93965.81;;;8.98;100.00
11049;BME280;5577;42.706;23.160;2023-03-21T00:59:45;93945.19;;;9.04;100.00
11049;BME280;5577;42.706;23.160;2023-03-21T01:02:29;93856.69;;;8.47;100.00
11049;BME280;5577;42.706;23.160;2023-03-21T01:05:13;93957.47;;;9.12;100.00
11049;BME280;5577;42.706;23.160;2023-03-21T01:08:18;93959.75;;;9.13;100.00
11049;BME280;5577;42.706;23.160;2023-03-21T01:11:08;93948.53;;;9.16;100.00
11049;BME280;5577;42.706;23.160;2023-03-21T01:13:53;93948.53;;;9.16;100.00
11049;BME280;5577;42.706;23.160;2023-03-21T01:16:37;93961.41;;;9.18;100.00
11049;BME280;5577;42.706;23.160;2023-03-21T01:19:23;93957.81;;;9.10;100.00
11049;BME280;5577;42.706;23.160;2023-03-21T01:22:12;93961.91;;;9.08;100.00
11049;BME280;5577;42.706;23.160;2023-03-21T01:24:56;93962.47;;;9.17;100.00
11049;BME280;5577;42.706;23.160;2023-03-21T01:27:40;93963.44;;;9.24;100.00
11049;BME280;5577;42.706;23.160;2023-03-21T01:30:24;93947.69;;;9.28;100.00
11049;BME280;5577;42.706;23.160;2023-03-21T01:33:08;93956.00;;;9.30;100.00
11049;BME280;5577;42.706;23.160;2023-03-21T01:35:53;93904.81;;;8.88;100.00
11049;BME280;5577;42.706;23.160;2023-03-21T01:38:37;93950.81;;;9.02;100.00
11049;BME280;5577;42.706;23.160;2023-03-21T01:41:37;93952.44;;;8.91;100.00
11049;BME280;5577;42.706;23.160;2023-03-21T01:44:21;93943.63;;;8.71;100.00
11049;BME280;5577;42.706;23.160;2023-03-21T01:47:05;93951.50;;;8.56;100.00
11049;BME280;5577;42.706;23.160;2023-03-21T01:49:52;93948.00;;;8.52;100.00
11049;BME280;5577;42.706;23.160;2023-03-21T01:52:38;93947.38;;;8.43;100.00
11049;BME280;5577;42.706;23.160;2023-03-21T01:55:24;93949.91;;;8.39;100.00
11049;BME280;5577;42.706;23.160;2023-03-21T01:58:09;93941.78;;;8.44;100.00
11049;BME280;5577;42.706;23.160;2023-03-21T02:00:54;93931.56;;;8.43;100.00
11049;BME280;5577;42.706;23.160;2023-03-21T02:03:41;93935.34;;;8.30;100.00
11049;BME280;5577;42.706;23.160;2023-03-21T02:06:45;93899.06;;;7.99;100.00
11049;BME280;5577;42.706;23.160;2023-03-21T02:09:32;93943.16;;;8.26;100.00
11049;BME280;5577;42.706;23.160;2023-03-21T02:12:18;93939.41;;;8.27;100.00
11049;BME280;5577;42.706;23.160;2023-03-21T02:15:03;93919.22;;;8.19;100.00
11049;BME280;5577;42.706;23.160;2023-03-21T02:17:58;93927.75;;;8.28;100.00
11049;BME280;5577;42.706;23.160;2023-03-21T02:27:03;93907.00;;;7.87;100.00
11049;BME280;5577;42.706;23.160;2023-03-21T02:44:43;93909.47;;;8.08;100.00
11049;BME280;5577;42.706;23.160;2023-03-21T02:47:41;93922.44;;;8.01;100.00
11049;BME280;5577;42.706;23.160;2023-03-21T02:50:45;93934.34;;;7.71;100.00
11049;BME280;5577;42.706;23.160;2023-03-21T02:53:33;93936.94;;;7.55;100.00
11049;BME280;5577;42.706;23.160;2023-03-21T02:56:20;93926.72;;;7.54;100.00
11049;BME280;5577;42.706;23.160;2023-03-21T02:59:06;93947.25;;;7.48;100.00
11049;BME280;5577;42.706;23.160;2023-03-21T03:01:53;93932.00;;;7.30;100.00
11049;BME280;5577;42.706;23.160;2023-03-21T03:04:37;93936.25;;;7.22;100.00
11049;BME280;5577;42.706;23.160;2023-03-21T03:07:28;93941.44;;;7.19;100.00
11049;BME280;5577;42.706;23.160;2023-03-21T03:20:07;93936.88;;;6.95;100.00
11049;BME280;5577;42.706;23.160;2023-03-21T03:26:08;93935.25;;;6.91;100.00
11049;BME280;5577;42.706;23.160;2023-03-21T03:28:58;93908.25;;;6.70;100.00
11049;BME280;5577;42.706;23.160;2023-03-21T03:31:48;93913.94;;;6.60;100.00
11049;BME280;5577;42.706;23.160;2023-03-21T03:34:39;93943.91;;;6.79;100.00
11049;BME280;5577;42.706;23.160;2023-03-21T03:37:28;93943.13;;;6.79;100.00
11049;BME280;5577;42.706;23.160;2023-03-21T03:40:18;93860.81;;;6.22;100.00
11049;BME280;5577;42.706;23.160;2023-03-21T03:43:15;93938.06;;;6.74;100.00
11049;BME280;5577;42.706;23.160;2023-03-21T03:46:08;93926.88;;;6.65;100.00
11049;BME280;5577;42.706;23.160;2023-03-21T03:49:00;93934.34;;;6.63;100.00
11049;BME280;5577;42.706;23.160;2023-03-21T03:54:38;93923.66;;;6.47;100.00
11049;BME280;5577;42.706;23.160;2023-03-21T03:57:24;93938.78;;;6.50;100.00
11049;BME280;5577;42.706;23.160;2023-03-21T04:00:11;93870.84;;;6.08;100.00
11049;BME280;5577;42.706;23.160;2023-03-21T04:02:55;93930.13;;;6.50;100.00
11049;BME280;5577;42.706;23.160;2023-03-21T04:05:42;93918.47;;;6.39;100.00
11049;BME280;5577;42.706;23.160;2023-03-21T04:08:29;93931.97;;;6.49;100.00
11049;BME280;5577;42.706;23.160;2023-03-21T04:11:13;93925.72;;;6.42;100.00
11049;BME280;5577;42.706;23.160;2023-03-21T04:13:59;93924.94;;;6.41;100.00
11049;BME280;5577;42.706;23.160;2023-03-21T04:16:42;93919.38;;;6.43;100.00
11049;BME280;5577;42.706;23.160;2023-03-21T04:19:26;93914.66;;;6.36;100.00
11049;BME280;5577;42.706;23.160;2023-03-21T04:22:11;93902.25;;;6.37;100.00
11049;BME280;5577;42.706;23.160;2023-03-21T04:24:55;93914.97;;;6.35;100.00
11049;BME280;5577;42.706;23.160;2023-03-21T04:27:40;93882.28;;;6.24;100.00
11049;BME280;5577;42.706;23.160;2023-03-21T04:30:24;93854.59;;;5.93;100.00
11049;BME280;5577;42.706;23.160;2023-03-21T04:33:07;93853.16;;;5.96;100.00
11049;BME280;5577;42.706;23.160;2023-03-21T04:35:52;93936.31;;;6.33;100.00
11049;BME280;5577;42.706;23.160;2023-03-21T04:38:39;93926.38;;;6.39;100.00
11049;BME280;5577;42.706;23.160;2023-03-21T04:41:23;93927.13;;;6.39;100.00
11049;BME280;5577;42.706;23.160;2023-03-21T04:44:07;93929.50;;;6.32;100.00
11049;BME280;5577;42.706;23.160;2023-03-21T04:46:52;93932.28;;;6.36;100.00
11049;BME280;5577;42.706;23.160;2023-03-21T04:49:36;93936.09;;;6.38;100.00
11049;BME280;5577;42.706;23.160;2023-03-21T04:52:19;93936.88;;;6.39;100.00
11049;BME280;5577;42.706;23.160;2023-03-21T04:55:04;93927.91;;;6.40;100.00
11049;BME280;5577;42.706;23.160;2023-03-21T04:57:48;93933.63;;;6.54;100.00
11049;BME280;5577;42.706;23.160;2023-03-21T05:00:32;93927.19;;;6.63;100.00
11049;BME280;5577;42.706;23.160;2023-03-21T05:03:20;93941.00;;;6.60;100.00
11049;BME280;5577;42.706;23.160;2023-03-21T05:06:05;93936.63;;;6.64;100.00
11049;BME280;5577;42.706;23.160;2023-03-21T05:08:51;93931.47;;;6.68;100.00
11049;BME280;5577;42.706;23.160;2023-03-21T05:11:36;93931.72;;;6.75;100.00
11049;BME280;5577;42.706;23.160;2023-03-21T05:14:23;93934.81;;;6.77;100.00
11049;BME280;5577;42.706;23.160;2023-03-21T05:17:09;93926.03;;;6.85;100.00
11049;BME280;5577;42.706;23.160;2023-03-21T05:19:53;93933.75;;;7.02;100.00
11049;BME280;5577;42.706;23.160;2023-03-21T05:22:39;93939.66;;;7.11;100.00
11049;BME280;5577;42.706;23.160;2023-03-21T05:25:23;93939.56;;;7.19;100.00
11049;BME280;5577;42.706;23.160;2023-03-21T05:28:16;93937.91;;;7.27;100.00
11049;BME280;5577;42.706;23.160;2023-03-21T05:31:04;93931.66;;;7.43;100.00
11049;BME280;5577;42.706;23.160;2023-03-21T05:33:48;93934.94;;;7.52;100.00
11049;BME280;5577;42.706;23.160;2023-03-21T05:36:33;93941.41;;;7.67;100.00
11049;BME280;5577;42.706;23.160;2023-03-21T05:39:19;93871.00;;;7.40;100.00
11049;BME280;5577;42.706;23.160;2023-03-21T05:42:03;93936.41;;;8.01;100.00
11049;BME280;5577;42.706;23.160;2023-03-21T05:44:47;93936.34;;;8.13;100.00
11049;BME280;5577;42.706;23.160;2023-03-21T05:47:31;93879.63;;;7.92;100.00
11049;BME280;5577;42.706;23.160;2023-03-21T05:50:16;93916.50;;;8.43;100.00
11049;BME280;5577;42.706;23.160;2023-03-21T05:53:00;93913.03;;;8.70;100.00
11049;BME280;5577;42.706;23.160;2023-03-21T05:55:44;93922.19;;;8.88;100.00
11049;BME280;5577;42.706;23.160;2023-03-21T05:58:29;93890.75;;;8.83;100.00
11049;BME280;5577;42.706;23.160;2023-03-21T06:01:13;93920.56;;;9.31;100.00
11049;BME280;5577;42.706;23.160;2023-03-21T06:03:57;93913.63;;;9.57;100.00
11049;BME280;5577;42.706;23.160;2023-03-21T06:06:41;93836.53;;;9.36;100.00
11049;BME280;5577;42.706;23.160;2023-03-21T06:09:25;93850.78;;;9.66;100.00
11049;BME280;5577;42.706;23.160;2023-03-21T06:12:10;93918.16;;;10.26;100.00
11049;BME280;5577;42.706;23.160;2023-03-21T06:14:55;93852.00;;;10.07;100.00
11049;BME280;5577;42.706;23.160;2023-03-21T06:17:39;93871.16;;;10.38;100.00
11049;BME280;5577;42.706;23.160;2023-03-21T06:20:23;93893.66;;;10.70;100.00
11049;BME280;5577;42.706;23.160;2023-03-21T06:23:08;93909.69;;;10.77;100.00
11049;BME280;5577;42.706;23.160;2023-03-21T06:25:52;93906.69;;;10.79;100.00
11049;BME280;5577;42.706;23.160;2023-03-21T06:28:36;93898.09;;;10.85;100.00
11049;BME280;5577;42.706;23.160;2023-03-21T06:31:20;93823.00;;;10.52;100.00
11049;BME280;5577;42.706;23.160;2023-03-21T06:34:05;93905.84;;;11.20;100.00
11049;BME280;5577;42.706;23.160;2023-03-21T06:36:50;93909.53;;;11.38;100.00
11049;BME280;5577;42.706;23.160;2023-03-21T06:39:34;93893.44;;;11.50;100.00
11049;BME280;5577;42.706;23.160;2023-03-21T06:42:19;93861.94;;;11.45;100.00
11049;BME280;5577;42.706;23.160;2023-03-21T06:45:03;93877.63;;;11.80;100.00
11049;BME280;5577;42.706;23.160;2023-03-21T06:47:47;93913.28;;;12.12;100.00
11049;BME280;5577;42.706;23.160;2023-03-21T06:50:31;93915.94;;;12.12;100.00
11049;BME280;5577;42.706;23.160;2023-03-21T06:53:16;93921.38;;;12.22;100.00
11049;BME280;5577;42.706;23.160;2023-03-21T06:56:01;93920.53;;;12.48;100.00
11049;BME280;5577;42.706;23.160;2023-03-21T06:58:45;93918.34;;;12.53;100.00
11049;BME280;5577;42.706;23.160;2023-03-21T07:01:29;93912.72;;;12.58;100.00
11049;BME280;5577;42.706;23.160;2023-03-21T07:04:14;93907.41;;;12.58;100.00
11049;BME280;5577;42.706;23.160;2023-03-21T07:06:57;93912.09;;;12.72;100.00
11049;BME280;5577;42.706;23.160;2023-03-21T07:09:41;93902.63;;;12.74;100.00
11049;BME280;5577;42.706;23.160;2023-03-21T07:12:25;93912.66;;;12.91;100.00
11049;BME280;5577;42.706;23.160;2023-03-21T07:15:09;93922.75;;;13.08;95.13
11049;BME280;5577;42.706;23.160;2023-03-21T07:17:53;93920.66;;;13.31;88.27
11049;BME280;5577;42.706;23.160;2023-03-21T07:20:38;93926.06;;;13.42;76.55
11049;BME280;5577;42.706;23.160;2023-03-21T07:23:23;93925.03;;;13.53;70.95
11049;BME280;5577;42.706;23.160;2023-03-21T07:26:08;93928.06;;;13.52;73.54
11049;BME280;5577;42.706;23.160;2023-03-21T07:28:52;93921.34;;;13.68;71.27
11049;BME280;5577;42.706;23.160;2023-03-21T07:31:36;93916.50;;;13.84;67.28
11049;BME280;5577;42.706;23.160;2023-03-21T07:34:22;93925.31;;;13.95;64.62
11049;BME280;5577;42.706;23.160;2023-03-21T07:37:06;93927.03;;;13.67;65.19
11049;BME280;5577;42.706;23.160;2023-03-21T07:39:50;93866.00;;;13.34;65.42
11049;BME280;5577;42.706;23.160;2023-03-21T07:42:35;93926.97;;;14.21;64.84
11049;BME280;5577;42.706;23.160;2023-03-21T07:45:20;93924.38;;;14.28;63.61
11049;BME280;5577;42.706;23.160;2023-03-21T07:48:06;93923.69;;;14.42;62.64
11049;BME280;5577;42.706;23.160;2023-03-21T07:50:50;93941.22;;;14.46;62.74
11049;BME280;5577;42.706;23.160;2023-03-21T07:53:34;93899.47;;;13.96;65.57
11049;BME280;5577;42.706;23.160;2023-03-21T07:56:18;93932.63;;;14.05;64.82
11049;BME280;5577;42.706;23.160;2023-03-21T07:59:02;93923.56;;;14.20;65.43
11049;BME280;5577;42.706;23.160;2023-03-21T08:01:48;93919.50;;;14.41;65.70
11049;BME280;5577;42.706;23.160;2023-03-21T08:04:32;93929.84;;;14.60;64.88
11049;BME280;5577;42.706;23.160;2023-03-21T08:07:18;93924.53;;;14.60;64.42
11049;BME280;5577;42.706;23.160;2023-03-21T08:10:02;93924.16;;;14.61;65.23
11049;BME280;5577;42.706;23.160;2023-03-21T08:12:46;93917.38;;;14.88;63.80
11049;BME280;5577;42.706;23.160;2023-03-21T08:15:30;93913.19;;;14.84;63.81
11049;BME280;5577;42.706;23.160;2023-03-21T08:18:14;93911.72;;;15.11;63.11
11049;BME280;5577;42.706;23.160;2023-03-21T08:20:58;93925.06;;;15.18;63.16
11049;BME280;5577;42.706;23.160;2023-03-21T08:23:42;93885.03;;;14.83;61.97
11049;BME280;5577;42.706;23.160;2023-03-21T08:26:26;93887.25;;;14.67;60.97
11049;BME280;5577;42.706;23.160;2023-03-21T08:29:11;93913.06;;;14.52;64.43
11049;BME280;5577;42.706;23.160;2023-03-21T08:31:56;93916.03;;;14.33;65.07
11049;BME280;5577;42.706;23.160;2023-03-21T08:34:41;93909.53;;;14.27;66.62
11049;BME280;5577;42.706;23.160;2023-03-21T08:37:26;93908.44;;;14.31;66.11
11049;BME280;5577;42.706;23.160;2023-03-21T08:40:13;93904.63;;;14.32;67.92
11049;BME280;5577;42.706;23.160;2023-03-21T08:42:58;93907.75;;;14.59;67.20
11049;BME280;5577;42.706;23.160;2023-03-21T08:45:43;93912.38;;;14.66;65.61
11049;BME280;5577;42.706;23.160;2023-03-21T08:48:26;93911.59;;;14.65;65.77
11049;BME280;5577;42.706;23.160;2023-03-21T08:51:10;93913.88;;;14.60;67.81
11049;BME280;5577;42.706;23.160;2023-03-21T08:53:55;93913.91;;;14.77;67.66
11049;BME280;5577;42.706;23.160;2023-03-21T08:56:39;93911.59;;;14.65;69.02
11049;BME280;5577;42.706;23.160;2023-03-21T08:59:23;93907.81;;;14.73;66.96
11049;BME280;5577;42.706;23.160;2023-03-21T09:02:09;93911.97;;;14.64;66.45
11049;BME280;5577;42.706;23.160;2023-03-21T09:04:56;93908.84;;;14.44;64.62
11049;BME280;5577;42.706;23.160;2023-03-21T09:07:42;93890.97;;;14.41;65.55
11049;BME280;5577;42.706;23.160;2023-03-21T09:10:26;93899.38;;;14.50;64.14
11049;BME280;5577;42.706;23.160;2023-03-21T09:13:10;93887.63;;;14.62;63.11
11049;BME280;5577;42.706;23.160;2023-03-21T09:15:54;93860.59;;;14.60;61.73
11049;BME280;5577;42.706;23.160;2023-03-21T09:18:40;93879.72;;;15.07;61.85
11049;BME280;5577;42.706;23.160;2023-03-21T09:21:33;93881.66;;;15.38;59.06
11049;BME280;5577;42.706;23.160;2023-03-21T09:24:19;93823.34;;;14.98;57.53
11049;BME280;5577;42.706;23.160;2023-03-21T09:27:03;93882.00;;;15.26;55.82
11049;BME280;5577;42.706;23.160;2023-03-21T09:29:50;93873.28;;;15.50;55.42
11049;BME280;5577;42.706;23.160;2023-03-21T09:32:35;93867.94;;;15.75;53.62
11049;BME280;5577;42.706;23.160;2023-03-21T09:35:19;93881.22;;;15.99;53.66
11049;BME280;5577;42.706;23.160;2023-03-21T09:38:04;93881.59;;;16.08;52.97
11049;BME280;5577;42.706;23.160;2023-03-21T09:53:03;93848.75;;;16.18;53.55
11049;BME280;5577;42.706;23.160;2023-03-21T09:55:50;93841.88;;;16.10;53.14
11049;BME280;5577;42.706;23.160;2023-03-21T09:58:40;93814.09;;;16.01;53.22
11049;BME280;5577;42.706;23.160;2023-03-21T10:01:28;93836.69;;;16.72;51.86
11049;BME280;5577;42.706;23.160;2023-03-21T10:04:16;93829.44;;;17.27;49.68
11049;BME280;5577;42.706;23.160;2023-03-21T10:07:03;93775.84;;;17.78;47.38
11049;BME280;5577;42.706;23.160;2023-03-21T10:09:47;93832.41;;;19.80;44.49
11049;BME280;5577;42.706;23.160;2023-03-21T10:12:32;93835.03;;;20.46;41.74
11049;BME280;5577;42.706;23.160;2023-03-21T10:15:22;93830.88;;;21.48;40.17
11049;BME280;5577;42.706;23.160;2023-03-21T10:18:09;93818.31;;;23.13;38.00
11049;BME280;5577;42.706;23.160;2023-03-21T10:20:56;93803.63;;;23.14;35.75
11049;BME280;5577;42.706;23.160;2023-03-21T10:23:41;93804.22;;;21.98;36.69
11049;BME280;5577;42.706;23.160;2023-03-21T10:26:27;93829.81;;;22.34;36.37
11049;BME280;5577;42.706;23.160;2023-03-21T10:29:14;93772.00;;;22.35;35.70
11049;BME280;5577;42.706;23.160;2023-03-21T10:31:59;93813.25;;;22.20;35.43
11049;BME280;5577;42.706;23.160;2023-03-21T10:34:47;93818.06;;;21.36;36.77
11049;BME280;5577;42.706;23.160;2023-03-21T10:37:33;93817.72;;;21.18;37.94
11049;BME280;5577;42.706;23.160;2023-03-21T10:40:19;93822.03;;;21.15;38.02
11049;BME280;5577;42.706;23.160;2023-03-21T10:43:31;93828.06;;;21.19;38.37
11049;BME280;5577;42.706;23.160;2023-03-21T10:46:19;93828.28;;;20.93;38.39
11049;BME280;5577;42.706;23.160;2023-03-21T10:49:06;93823.28;;;20.95;38.02
11049;BME280;5577;42.706;23.160;2023-03-21T10:51:52;93821.03;;;21.41;36.83
11049;BME280;5577;42.706;23.160;2023-03-21T10:54:38;93820.78;;;21.52;36.91
11049;BME280;5577;42.706;23.160;2023-03-21T10:57:24;93818.84;;;20.85;37.85
11049;BME280;5577;42.706;23.160;2023-03-21T11:00:18;93809.41;;;20.77;37.67
11049;BME280;5577;42.706;23.160;2023-03-21T11:03:04;93789.22;;;21.52;36.85
11049;BME280;5577;42.706;23.160;2023-03-21T11:05:55;93798.53;;;22.37;35.61
11049;BME280;5577;42.706;23.160;2023-03-21T11:08:49;93800.91;;;22.89;36.46
11049;BME280;5577;42.706;23.160;2023-03-21T11:14:37;93786.22;;;22.65;34.98
11049;BME280;5577;42.706;23.160;2023-03-21T11:17:27;93789.78;;;22.33;35.00
11049;BME280;5577;42.706;23.160;2023-03-21T11:20:17;93787.44;;;22.06;35.68
11049;BME280;5577;42.706;23.160;2023-03-21T11:23:02;93770.31;;;21.84;36.49
11049;BME280;5577;42.706;23.160;2023-03-21T11:25:49;93781.78;;;22.17;35.77
11049;BME280;5577;42.706;23.160;2023-03-21T11:28:40;93770.13;;;23.49;34.14
11049;BME280;5577;42.706;23.160;2023-03-21T11:31:45;93771.72;;;23.46;33.71
11049;BME280;5577;42.706;23.160;2023-03-21T11:34:43;93758.47;;;21.82;35.26
11049;BME280;5577;42.706;23.160;2023-03-21T11:37:33;93769.06;;;20.77;37.79
11049;BME280;5577;42.706;23.160;2023-03-21T11:40:30;93764.31;;;20.29;38.13
11049;BME280;5577;42.706;23.160;2023-03-21T11:48:46;93738.69;;;20.25;37.99
11049;BME280;5577;42.706;23.160;2023-03-21T12:00:53;93710.88;;;19.33;37.81
11049;BME280;5577;42.706;23.160;2023-03-21T12:03:47;93735.47;;;19.28;38.10
11049;BME280;5577;42.706;23.160;2023-03-21T12:09:44;93729.84;;;18.73;39.71
11049;BME280;5577;42.706;23.160;2023-03-21T12:12:55;93718.28;;;18.53;40.69
11049;BME280;5577;42.706;23.160;2023-03-21T12:25:20;93708.31;;;18.54;40.38
11049;BME280;5577;42.706;23.160;2023-03-21T12:31:29;93708.41;;;18.47;39.50
11049;BME280;5577;42.706;23.160;2023-03-21T12:37:33;93609.25;;;17.94;39.88
11049;BME280;5577;42.706;23.160;2023-03-21T12:46:34;93695.44;;;19.14;38.83
11049;BME280;5577;42.706;23.160;2023-03-21T12:49:41;93695.16;;;19.94;38.33
11049;BME280;5577;42.706;23.160;2023-03-21T12:52:36;93641.16;;;19.49;36.80
11049;BME280;5577;42.706;23.160;2023-03-21T12:55:33;93701.34;;;19.52;37.52
11049;BME280;5577;42.706;23.160;2023-03-21T12:58:21;93685.44;;;19.18;37.73
11049;BME280;5577;42.706;23.160;2023-03-21T13:01:08;93673.53;;;19.19;37.96
11049;BME280;5577;42.706;23.160;2023-03-21T13:07:23;93680.25;;;18.85;37.92
11049;BME280;5577;42.706;23.160;2023-03-21T13:10:14;93670.69;;;18.61;38.48
11049;BME280;5577;42.706;23.160;2023-03-21T13:13:19;93670.72;;;17.74;38.25
11049;BME280;5577;42.706;23.160;2023-03-21T13:16:25;93654.63;;;17.41;38.97
11049;BME280;5577;42.706;23.160;2023-03-21T13:28:02;93674.50;;;17.40;40.31
11049;BME280;5577;42.706;23.160;2023-03-21T13:30:47;93672.69;;;17.33;39.69
11049;BME280;5577;42.706;23.160;2023-03-21T13:33:31;93659.72;;;17.28;40.34
11049;BME280;5577;42.706;23.160;2023-03-21T13:36:23;93658.97;;;17.28;40.19
11049;BME280;5577;42.706;23.160;2023-03-21T13:39:18;93652.63;;;17.14;40.96
11049;BME280;5577;42.706;23.160;2023-03-21T13:42:04;93646.16;;;17.12;41.43
11049;BME280;5577;42.706;23.160;2023-03-21T13:44:55;93648.84;;;17.08;40.75
11049;BME280;5577;42.706;23.160;2023-03-21T13:47:54;93639.44;;;16.97;42.00
11049;BME280;5577;42.706;23.160;2023-03-21T13:50:58;93637.56;;;16.90;42.11
11049;BME280;5577;42.706;23.160;2023-03-21T13:56:55;93637.09;;;17.02;41.63
11049;BME280;5577;42.706;23.160;2023-03-21T13:59:42;93639.09;;;16.91;41.27
11049;BME280;5577;42.706;23.160;2023-03-21T14:02:32;93607.31;;;16.60;41.67
11049;BME280;5577;42.706;23.160;2023-03-21T14:05:20;93624.44;;;16.66;41.93
11049;BME280;5577;42.706;23.160;2023-03-21T14:08:07;93620.66;;;16.63;41.86
11049;BME280;5577;42.706;23.160;2023-03-21T14:10:55;93638.47;;;16.77;42.55
11049;BME280;5577;42.706;23.160;2023-03-21T14:13:44;93631.63;;;16.76;42.21
11049;BME280;5577;42.706;23.160;2023-03-21T14:16:29;93630.97;;;16.61;42.66
11049;BME280;5577;42.706;23.160;2023-03-21T14:19:14;93634.94;;;16.43;43.19
11049;BME280;5577;42.706;23.160;2023-03-21T14:21:59;93626.94;;;16.36;43.21
11049;BME280;5577;42.706;23.160;2023-03-21T14:25:00;93627.72;;;16.33;43.70
11049;BME280;5577;42.706;23.160;2023-03-21T14:27:48;93624.78;;;16.20;43.65
11049;BME280;5577;42.706;23.160;2023-03-21T14:30:36;93634.00;;;16.12;43.93
11049;BME280;5577;42.706;23.160;2023-03-21T14:33:39;93624.53;;;16.01;44.32
11049;BME280;5577;42.706;23.160;2023-03-21T14:36:28;93622.72;;;15.87;45.07
11049;BME280;5577;42.706;23.160;2023-03-21T14:39:19;93628.09;;;15.77;45.21
11049;BME280;5577;42.706;23.160;2023-03-21T14:42:06;93622.41;;;15.71;45.88
11049;BME280;5577;42.706;23.160;2023-03-21T14:44:50;93631.22;;;15.65;46.34
11049;BME280;5577;42.706;23.160;2023-03-21T14:47:35;93626.69;;;15.58;48.96
11049;BME280;5577;42.706;23.160;2023-03-21T14:50:23;93641.22;;;15.29;50.71
11049;BME280;5577;42.706;23.160;2023-03-21T14:53:15;93645.91;;;15.01;56.55
11049;BME280;5577;42.706;23.160;2023-03-21T14:56:09;93650.50;;;14.72;68.32
11049;BME280;5577;42.706;23.160;2023-03-21T14:58:58;93628.47;;;14.47;69.25
11049;BME280;5577;42.706;23.160;2023-03-21T15:01:44;93652.06;;;14.42;66.13
11049;BME280;5577;42.706;23.160;2023-03-21T15:04:30;93644.81;;;14.38;71.00
11049;BME280;5577;42.706;23.160;2023-03-21T15:07:27;93634.94;;;14.32;68.54
11049;BME280;5577;42.706;23.160;2023-03-21T15:10:14;93649.00;;;14.29;70.42
11049;BME280;5577;42.706;23.160;2023-03-21T15:13:21;93649.38;;;14.24;69.26
11049;BME280;5577;42.706;23.160;2023-03-21T15:16:06;93647.50;;;14.31;66.93
11049;BME280;5577;42.706;23.160;2023-03-21T15:18:51;93650.53;;;14.44;66.02
11049;BME280;5577;42.706;23.160;2023-03-21T15:21:40;93649.00;;;14.57;66.69
11049;BME280;5577;42.706;23.160;2023-03-21T15:24:34;93648.25;;;14.43;67.84
11049;BME280;5577;42.706;23.160;2023-03-21T15:27:23;93654.31;;;14.25;71.15
11049;BME280;5577;42.706;23.160;2023-03-21T15:30:23;93648.97;;;14.11;72.01
11049;BME280;5577;42.706;23.160;2023-03-21T15:33:09;93647.06;;;14.05;73.32
11049;BME280;5577;42.706;23.160;2023-03-21T15:35:57;93658.09;;;14.00;75.92
11049;BME280;5577;42.706;23.160;2023-03-21T15:38:42;93662.59;;;13.85;85.69
11049;BME280;5577;42.706;23.160;2023-03-21T15:41:29;93665.22;;;13.64;100.00
11049;BME280;5577;42.706;23.160;2023-03-21T15:44:15;93535.19;;;12.39;100.00
11049;BME280;5577;42.706;23.160;2023-03-21T15:47:00;93676.59;;;12.86;100.00
11049;BME280;5577;42.706;23.160;2023-03-21T15:49:52;93680.19;;;12.61;100.00
11049;BME280;5577;42.706;23.160;2023-03-21T15:52:37;93677.66;;;12.28;100.00
11049;BME280;5577;42.706;23.160;2023-03-21T15:55:26;93691.25;;;12.23;100.00
11049;BME280;5577;42.706;23.160;2023-03-21T15:58:14;93688.19;;;12.17;100.00
11049;BME280;5577;42.706;23.160;2023-03-21T16:01:03;93712.28;;;12.02;100.00
11049;BME280;5577;42.706;23.160;2023-03-21T16:03:55;93695.53;;;11.94;100.00
11049;BME280;5577;42.706;23.160;2023-03-21T16:07:13;93701.91;;;11.86;100.00
11049;BME280;5577;42.706;23.160;2023-03-21T16:10:00;93700.69;;;11.80;100.00
11049;BME280;5577;42.706;23.160;2023-03-21T16:12:47;93694.28;;;11.81;100.00
11049;BME280;5577;42.706;23.160;2023-03-21T16:15:31;93702.63;;;11.83;100.00
11049;BME280;5577;42.706;23.160;2023-03-21T16:18:16;93701.47;;;11.81;100.00
11049;BME280;5577;42.706;23.160;2023-03-21T16:21:00;93702.91;;;11.75;100.00
11049;BME280;5577;42.706;23.160;2023-03-21T16:23:45;93664.63;;;11.39;100.00
11049;BME280;5577;42.706;23.160;2023-03-21T16:26:32;93707.63;;;11.58;100.00
11049;BME280;5577;42.706;23.160;2023-03-21T16:29:17;93712.88;;;11.55;100.00
11049;BME280;5577;42.706;23.160;2023-03-21T16:32:02;93716.69;;;11.57;100.00